createdAt,value
2023-03-02T00:01:08.355Z,98.50
2023-03-02T00:03:40.665Z,98.50
2023-03-02T00:06:09.083Z,98.50
2023-03-02T00:08:37.276Z,98.50
2023-03-02T00:11:04.260Z,98.50
2023-03-02T00:13:33.160Z,98.50
2023-03-02T00:16:00.033Z,98.50
2023-03-02T00:18:26.762Z,98.50
2023-03-02T00:20:53.447Z,98.50
2023-03-02T00:23:20.344Z,98.50
2023-03-02T00:25:47.123Z,98.50
2023-03-02T00:28:13.890Z,98.50
2023-03-02T00:30:40.869Z,98.50
2023-03-02T00:33:07.825Z,98.50
2023-03-02T00:35:39.403Z,98.50
2023-03-02T00:38:07.181Z,98.50
2023-03-02T00:40:35.479Z,98.50
2023-03-02T00:43:02.178Z,98.50
2023-03-02T00:45:28.968Z,98.50
2023-03-02T00:47:55.784Z,98.50
2023-03-02T00:50:22.564Z,98.50
2023-03-02T00:52:49.565Z,98.50
2023-03-02T00:55:16.358Z,98.50
2023-03-02T00:57:43.202Z,98.50
2023-03-02T01:00:11.169Z,98.50
2023-03-02T01:02:43.921Z,98.50
2023-03-02T01:05:10.878Z,98.50
2023-03-02T01:07:37.630Z,98.50
2023-03-02T01:10:05.537Z,98.50
2023-03-02T01:12:33.103Z,98.50
2023-03-02T01:15:00.439Z,98.50
2023-03-02T01:17:27.790Z,98.50
2023-03-02T01:19:54.866Z,98.50
2023-03-02T01:22:23.123Z,98.50
2023-03-02T01:24:50.058Z,98.50
2023-03-02T01:27:16.799Z,98.50
2023-03-02T01:29:43.590Z,98.50
2023-03-02T01:32:10.421Z,98.50
2023-03-02T01:34:37.307Z,98.50
2023-03-02T01:37:04.474Z,98.50
2023-03-02T01:39:31.243Z,98.50
2023-03-02T01:41:58.022Z,98.50
2023-03-02T01:44:46.632Z,98.50
2023-03-02T01:47:23.115Z,98.50
2023-03-02T01:50:01.276Z,98.50
2023-03-02T01:52:31.451Z,98.50
2023-03-02T01:55:01.854Z,98.50
2023-03-02T01:57:32.658Z,98.50
2023-03-02T02:00:10.347Z,98.50
2023-03-02T02:02:37.134Z,98.50
2023-03-02T02:05:04.499Z,98.50
2023-03-02T02:07:31.584Z,98.50
2023-03-02T02:09:58.815Z,98.50
2023-03-02T02:12:25.558Z,98.50
2023-03-02T02:14:52.334Z,98.50
2023-03-02T02:17:19.854Z,98.50
2023-03-02T02:20:20.830Z,98.50
2023-03-02T02:23:01.906Z,98.50
2023-03-02T02:25:39.819Z,98.50
2023-03-02T02:28:12.361Z,98.50
2023-03-02T02:30:40.582Z,98.50
2023-03-02T02:33:09.720Z,98.50
2023-03-02T02:35:38.624Z,98.50
2023-03-02T02:38:07.997Z,98.50
2023-03-02T02:40:52.713Z,98.50
2023-03-02T02:43:21.316Z,98.50
2023-03-02T02:45:51.982Z,98.50
2023-03-02T02:48:23.140Z,98.50
2023-03-02T02:50:53.233Z,98.50
2023-03-02T02:53:24.629Z,98.50
2023-03-02T02:55:54.986Z,98.50
2023-03-02T02:58:30.707Z,98.50
2023-03-02T03:00:57.773Z,98.50
2023-03-02T03:03:34.551Z,98.50
2023-03-02T03:06:04.816Z,98.50
2023-03-02T03:08:46.536Z,98.50
2023-03-02T03:11:19.312Z,98.50
2023-03-02T03:13:46.937Z,98.50
2023-03-02T03:16:16.137Z,98.50
2023-03-02T03:18:45.198Z,98.50
2023-03-02T03:21:11.943Z,98.50
2023-03-02T03:23:38.685Z,98.50
2023-03-02T03:26:06.102Z,98.50
2023-03-02T03:28:33.468Z,98.50
2023-03-02T03:31:00.258Z,98.50
2023-03-02T03:33:26.989Z,98.50
2023-03-02T03:35:53.703Z,98.50
2023-03-02T03:38:20.621Z,98.50
2023-03-02T03:40:47.384Z,98.50
2023-03-02T03:43:15.132Z,98.50
2023-03-02T03:45:41.836Z,98.50
2023-03-02T03:48:08.528Z,98.50
2023-03-02T03:50:36.771Z,98.50
2023-03-02T03:53:04.073Z,98.50
2023-03-02T03:55:31.324Z,98.50
2023-03-02T03:57:58.192Z,98.50
2023-03-02T04:00:24.974Z,98.50
2023-03-02T04:02:51.700Z,98.50
2023-03-02T04:05:18.497Z,98.50
2023-03-02T04:07:45.468Z,98.50
2023-03-02T04:10:12.476Z,98.50
2023-03-02T04:12:40.779Z,98.50
2023-03-02T04:15:09.162Z,98.50
2023-03-02T04:17:35.848Z,98.50
2023-03-02T04:20:02.640Z,98.50
2023-03-02T04:22:29.279Z,98.50
2023-03-02T04:24:55.994Z,98.50
2023-03-02T04:27:22.684Z,98.50
2023-03-02T04:29:49.425Z,98.50
2023-03-02T04:32:16.120Z,98.50
2023-03-02T04:34:42.803Z,98.50
2023-03-02T04:37:09.493Z,98.50
2023-03-02T04:39:36.300Z,98.50
2023-03-02T04:42:03.049Z,98.50
2023-03-02T04:44:29.798Z,98.50
2023-03-02T04:46:56.602Z,98.50
2023-03-02T04:49:23.536Z,98.50
2023-03-02T04:51:50.836Z,98.50
2023-03-02T04:54:23.555Z,98.50
2023-03-02T04:56:51.565Z,98.50
2023-03-02T04:59:25.925Z,98.50
2023-03-02T05:01:55.054Z,98.50
2023-03-02T05:04:22.380Z,98.50
2023-03-02T05:06:49.623Z,98.50
2023-03-02T05:09:16.745Z,98.50
2023-03-02T05:11:43.515Z,98.50
2023-03-02T05:14:12.540Z,98.50
2023-03-02T05:16:41.694Z,98.50
2023-03-02T05:19:10.594Z,98.50
2023-03-02T05:21:37.301Z,98.50
2023-03-02T05:24:04.125Z,98.50
2023-03-02T05:26:31.497Z,98.50
2023-03-02T05:28:58.416Z,98.50
2023-03-02T05:31:32.021Z,98.50
2023-03-02T05:33:58.748Z,98.50
2023-03-02T05:36:25.440Z,98.50
2023-03-02T05:38:52.264Z,98.50
2023-03-02T05:41:19.302Z,98.50
2023-03-02T05:43:45.963Z,98.50
2023-03-02T05:46:12.681Z,98.50
2023-03-02T05:48:39.633Z,98.50
2023-03-02T05:51:06.304Z,98.50
2023-03-02T05:53:32.983Z,98.50
2023-03-02T05:55:59.897Z,98.50
2023-03-02T05:58:26.589Z,98.50
2023-03-02T06:00:53.310Z,98.50
2023-03-02T06:03:20.116Z,98.50
2023-03-02T06:05:52.254Z,98.50
2023-03-02T06:08:21.497Z,98.50
2023-03-02T06:10:50.632Z,98.50
2023-03-02T06:13:17.376Z,98.50
2023-03-02T06:15:44.312Z,98.50
2023-03-02T06:18:12.528Z,98.50
2023-03-02T06:20:44.533Z,98.50
2023-03-02T06:23:12.006Z,98.50
2023-03-02T06:25:41.348Z,98.50
2023-03-02T06:28:08.020Z,98.50
2023-03-02T06:30:34.704Z,98.50
2023-03-02T06:33:01.687Z,98.50
2023-03-02T06:35:29.177Z,98.50
2023-03-02T06:37:56.064Z,98.50
2023-03-02T06:40:22.811Z,98.50
2023-03-02T06:42:49.893Z,98.50
2023-03-02T06:45:16.714Z,98.50
2023-03-02T06:47:43.372Z,98.50
2023-03-02T06:50:10.911Z,98.50
2023-03-02T06:52:37.639Z,98.50
2023-03-02T06:55:04.795Z,98.50
2023-03-02T06:57:34.233Z,98.50
2023-03-02T07:00:06.748Z,98.50
2023-03-02T07:02:33.731Z,98.50
2023-03-02T07:05:00.496Z,98.50
2023-03-02T07:07:27.478Z,98.50
2023-03-02T07:09:54.208Z,98.50
2023-03-02T07:12:20.857Z,98.50
2023-03-02T07:14:47.485Z,98.50
2023-03-02T07:17:14.138Z,98.50
2023-03-02T07:19:41.099Z,98.50
2023-03-02T07:22:07.782Z,98.50
2023-03-02T07:24:34.691Z,98.50
2023-03-02T07:27:01.533Z,98.50
2023-03-02T07:29:28.283Z,98.50
2023-03-02T07:32:01.067Z,98.50
2023-03-02T07:34:28.945Z,98.50
2023-03-02T07:36:55.799Z,98.50
2023-03-02T07:39:22.473Z,98.50
2023-03-02T07:41:49.419Z,98.50
2023-03-02T07:44:16.145Z,98.50
2023-03-02T07:46:43.013Z,98.50
2023-03-02T07:49:09.848Z,98.50
2023-03-02T07:51:36.529Z,98.50
2023-03-02T07:54:04.873Z,98.50
2023-03-02T07:56:31.654Z,98.50
2023-03-02T07:58:58.569Z,98.50
2023-03-02T08:01:25.397Z,98.50
2023-03-02T08:03:52.179Z,98.50
2023-03-02T08:06:19.127Z,98.50
2023-03-02T08:08:46.150Z,98.50
2023-03-02T08:11:16.238Z,98.50
2023-03-02T08:13:43.092Z,98.50
2023-03-02T08:16:12.183Z,98.50
2023-03-02T08:18:39.469Z,98.50
2023-03-02T08:21:18.053Z,98.50
2023-03-02T08:23:45.043Z,98.50
2023-03-02T08:26:14.792Z,98.50
2023-03-02T08:28:43.380Z,98.50
2023-03-02T08:31:10.663Z,98.50
2023-03-02T08:33:37.575Z,98.50
2023-03-02T08:36:13.478Z,98.50
2023-03-02T08:38:40.400Z,98.50
2023-03-02T08:41:10.592Z,98.50
2023-03-02T08:43:37.496Z,98.50
2023-03-02T08:46:04.653Z,98.50
2023-03-02T08:48:31.966Z,98.50
2023-03-02T08:51:14.206Z,98.50
2023-03-02T08:53:46.767Z,98.50
2023-03-02T08:56:22.571Z,98.50
2023-03-02T08:58:50.641Z,98.50
2023-03-02T09:01:20.103Z,98.50
2023-03-02T09:03:46.812Z,98.50
2023-03-02T09:06:13.776Z,98.50
2023-03-02T09:08:40.769Z,98.50
2023-03-02T09:11:08.098Z,98.50
2023-03-02T09:13:34.871Z,98.50
2023-03-02T09:16:01.857Z,98.50
2023-03-02T09:18:29.651Z,98.50
2023-03-02T09:20:56.857Z,98.50
2023-03-02T09:23:24.305Z,98.50
2023-03-02T09:25:51.264Z,98.50
2023-03-02T09:28:18.781Z,98.50
2023-03-02T09:30:53.846Z,98.50
2023-03-02T09:33:21.239Z,98.50
2023-03-02T09:35:48.171Z,98.50
2023-03-02T09:38:18.442Z,98.50
2023-03-02T09:40:58.687Z,98.50
2023-03-02T09:43:53.037Z,98.50
2023-03-02T09:46:47.846Z,98.50
2023-03-02T09:49:33.295Z,98.50
2023-03-02T09:52:29.062Z,98.10
2023-03-02T09:54:57.710Z,98.40
2023-03-02T09:57:31.833Z,97.70
2023-03-02T10:00:19.579Z,98.50
2023-03-02T10:02:50.261Z,98.50
2023-03-02T10:05:33.478Z,98.40
2023-03-02T10:08:00.833Z,98.50
2023-03-02T10:10:42.857Z,98.50
2023-03-02T10:13:21.441Z,97.90
2023-03-02T10:16:26.623Z,97.90
2023-03-02T10:19:24.956Z,98.00
2023-03-02T10:22:09.226Z,97.90
2023-03-02T10:25:11.482Z,96.50
2023-03-02T10:27:53.859Z,97.70
2023-03-02T10:30:28.412Z,97.80
2023-03-02T10:32:59.499Z,98.30
2023-03-02T10:35:28.858Z,98.50
2023-03-02T10:38:01.874Z,97.60
2023-03-02T10:40:34.459Z,97.70
2023-03-02T10:43:01.812Z,96.70
2023-03-02T10:45:31.628Z,95.30
2023-03-02T10:48:01.509Z,95.50
2023-03-02T10:50:30.557Z,95.80
2023-03-02T10:53:00.750Z,96.10
2023-03-02T10:55:28.945Z,96.20
2023-03-02T10:58:20.064Z,96.30
2023-03-02T11:01:16.378Z,97.60
2023-03-02T11:03:43.306Z,96.50
2023-03-02T11:06:22.505Z,95.50
2023-03-02T11:09:06.885Z,96.10
2023-03-02T11:11:35.535Z,93.70
2023-03-02T11:14:14.367Z,94.60
2023-03-02T11:16:41.135Z,93.70
2023-03-02T11:19:13.789Z,94.10
2023-03-02T11:22:07.843Z,93.60
2023-03-02T11:24:41.048Z,93.10
2023-03-02T11:27:20.189Z,93.00
2023-03-02T11:29:59.437Z,94.50
2023-03-02T11:33:01.437Z,93.20
2023-03-02T11:35:43.409Z,93.00
2023-03-02T11:38:22.054Z,91.30
2023-03-02T11:40:56.556Z,94.30
2023-03-02T11:43:23.321Z,94.40
2023-03-02T11:46:10.843Z,93.10
2023-03-02T11:48:43.250Z,90.60
2023-03-02T11:51:24.541Z,90.40
2023-03-02T11:54:04.611Z,90.90
2023-03-02T11:56:35.237Z,89.80
2023-03-02T11:59:21.023Z,89.60
2023-03-02T12:01:52.874Z,90.10
2023-03-02T12:04:35.963Z,91.10
2023-03-02T12:07:16.649Z,90.90
2023-03-02T12:09:43.582Z,90.90
2023-03-02T12:12:19.414Z,91.30
2023-03-02T12:14:46.419Z,89.20
2023-03-02T12:17:32.227Z,89.90
2023-03-02T12:20:08.075Z,88.90
2023-03-02T12:22:36.000Z,88.80
2023-03-02T12:25:21.265Z,88.50
2023-03-02T12:27:51.478Z,87.20
2023-03-02T12:30:25.000Z,86.00
2023-03-02T12:33:15.348Z,86.70
2023-03-02T12:35:42.483Z,86.80
2023-03-02T12:38:32.468Z,86.60
2023-03-02T12:41:13.512Z,86.30
2023-03-02T12:44:07.787Z,86.60
2023-03-02T12:46:37.403Z,86.70
2023-03-02T12:49:27.320Z,86.30
2023-03-02T12:51:58.605Z,86.10
2023-03-02T12:54:31.510Z,88.90
2023-03-02T12:57:08.907Z,86.50
2023-03-02T12:59:36.808Z,86.20
2023-03-02T13:02:25.027Z,86.60
2023-03-02T13:05:04.411Z,87.50
2023-03-02T13:07:44.083Z,88.10
2023-03-02T13:10:28.373Z,87.90
2023-03-02T13:12:55.139Z,88.20
2023-03-02T13:15:21.828Z,88.00
2023-03-02T13:17:57.062Z,86.40
2023-03-02T13:20:27.862Z,86.40
2023-03-02T13:22:55.265Z,85.40
2023-03-02T13:25:28.897Z,83.90
2023-03-02T13:28:00.575Z,84.20
2023-03-02T13:30:31.050Z,85.10
2023-03-02T13:33:02.710Z,84.30
2023-03-02T13:35:35.832Z,83.70
2023-03-02T13:38:16.038Z,82.50
2023-03-02T13:40:48.486Z,82.60
2023-03-02T13:43:30.727Z,84.20
2023-03-02T13:46:00.163Z,84.40
2023-03-02T13:48:30.244Z,85.90
2023-03-02T13:51:00.620Z,86.90
2023-03-02T13:53:30.193Z,85.30
2023-03-02T13:56:00.203Z,86.00
2023-03-02T13:58:29.338Z,86.30
2023-03-02T14:00:56.395Z,85.90
2023-03-02T14:03:29.766Z,85.30
2023-03-02T14:05:58.224Z,85.90
2023-03-02T14:08:25.266Z,86.30
2023-03-02T14:10:55.153Z,86.30
2023-03-02T14:13:30.479Z,85.50
2023-03-02T14:15:57.494Z,86.00
2023-03-02T14:18:26.625Z,85.90
2023-03-02T14:20:53.468Z,85.80
2023-03-02T14:23:20.180Z,85.00
2023-03-02T14:25:47.048Z,85.50
2023-03-02T14:28:36.283Z,84.70
2023-03-02T14:31:03.092Z,85.90
2023-03-02T14:33:29.804Z,85.90
2023-03-02T14:35:58.039Z,86.10
2023-03-02T14:38:27.006Z,85.80
2023-03-02T14:40:54.058Z,86.10
2023-03-02T14:43:21.363Z,85.80
2023-03-02T14:45:48.088Z,86.40
2023-03-02T14:48:14.806Z,85.70
2023-03-02T14:50:45.664Z,86.30
2023-03-02T14:53:27.970Z,86.40
2023-03-02T14:55:54.874Z,86.00
2023-03-02T14:58:31.350Z,87.60
2023-03-02T15:00:58.414Z,87.60
2023-03-02T15:03:29.242Z,87.10
2023-03-02T15:06:01.362Z,87.10
2023-03-02T15:08:29.921Z,86.20
2023-03-02T15:10:56.652Z,86.50
2023-03-02T15:13:23.352Z,86.30
2023-03-02T15:15:50.212Z,87.10
2023-03-02T15:18:19.577Z,86.30
2023-03-02T15:20:46.628Z,86.40
2023-03-02T15:23:13.474Z,87.10
2023-03-02T15:25:40.679Z,87.30
2023-03-02T15:28:07.334Z,86.40
2023-03-02T15:30:33.998Z,87.20
2023-03-02T15:33:00.725Z,87.30
2023-03-02T15:35:29.104Z,87.00
2023-03-02T15:37:58.199Z,87.10
2023-03-02T15:40:25.446Z,87.60
2023-03-02T15:42:53.121Z,88.50
2023-03-02T15:45:20.077Z,89.30
2023-03-02T15:47:47.052Z,89.30
2023-03-02T15:50:13.801Z,89.90
2023-03-02T15:52:41.539Z,93.30
2023-03-02T15:55:08.971Z,95.00
2023-03-02T15:57:39.382Z,95.70
2023-03-02T16:00:07.135Z,97.60
2023-03-02T16:02:34.249Z,98.50
2023-03-02T16:05:01.028Z,98.50
2023-03-02T16:07:27.875Z,98.50
2023-03-02T16:09:54.574Z,98.50
2023-03-02T16:12:23.336Z,98.50
2023-03-02T16:14:50.347Z,98.50
2023-03-02T16:17:20.549Z,98.50
2023-03-02T16:19:47.333Z,98.50
2023-03-02T16:22:14.468Z,98.50
2023-03-02T16:24:41.985Z,98.50
2023-03-02T16:27:08.948Z,98.50
2023-03-02T16:29:35.801Z,98.50
2023-03-02T16:32:02.716Z,98.50
2023-03-02T16:34:29.540Z,98.50
2023-03-02T16:36:56.222Z,98.50
2023-03-02T16:39:23.078Z,98.50
2023-03-02T16:41:51.297Z,98.50
2023-03-02T16:44:18.711Z,98.50
2023-03-02T16:46:45.824Z,98.50
2023-03-02T16:49:13.803Z,98.50
2023-03-02T16:51:41.157Z,98.50
2023-03-02T16:54:07.855Z,98.50
2023-03-02T16:56:34.598Z,98.50
2023-03-02T16:59:01.322Z,98.50
2023-03-02T17:01:28.299Z,98.50
2023-03-02T17:03:56.210Z,98.50
2023-03-02T17:06:24.010Z,98.50
2023-03-02T17:08:51.280Z,98.50
2023-03-02T17:11:19.181Z,98.50
2023-03-02T17:13:46.166Z,98.50
2023-03-02T17:16:13.437Z,98.50
2023-03-02T17:18:41.096Z,98.50
2023-03-02T17:21:08.423Z,98.50
2023-03-02T17:23:36.774Z,98.50
2023-03-02T17:26:03.723Z,98.50
2023-03-02T17:28:30.765Z,98.50
2023-03-02T17:30:57.544Z,98.50
2023-03-02T17:33:24.357Z,98.50
2023-03-02T17:35:52.054Z,98.50
2023-03-02T17:38:19.021Z,98.50
2023-03-02T17:40:45.873Z,98.50
2023-03-02T17:43:12.755Z,98.50
2023-03-02T17:45:39.879Z,98.50
2023-03-02T17:48:06.890Z,98.50
2023-03-02T17:50:33.786Z,98.50
2023-03-02T17:53:00.493Z,98.50
2023-03-02T17:55:27.249Z,98.50
2023-03-02T17:57:54.155Z,98.50
2023-03-02T18:00:23.189Z,98.50
2023-03-02T18:02:50.052Z,98.50
2023-03-02T18:05:17.000Z,98.50
2023-03-02T18:07:43.884Z,98.50
2023-03-02T18:10:11.730Z,98.50
2023-03-02T18:12:38.442Z,98.50
2023-03-02T18:15:05.890Z,98.50
2023-03-02T18:17:32.714Z,98.50
2023-03-02T18:19:59.670Z,98.50
2023-03-02T18:22:26.379Z,98.50
2023-03-02T18:24:53.142Z,98.50
2023-03-02T18:27:20.230Z,98.50
2023-03-02T18:29:46.949Z,98.50
2023-03-02T18:32:14.116Z,98.50
2023-03-02T18:34:40.966Z,98.50
2023-03-02T18:37:07.811Z,98.50
2023-03-02T18:39:34.967Z,98.50
2023-03-02T18:42:01.649Z,98.50
2023-03-02T18:44:28.438Z,98.50
2023-03-02T18:46:56.041Z,98.50
2023-03-02T18:49:23.521Z,98.50
2023-03-02T18:51:50.661Z,98.50
2023-03-02T18:54:17.414Z,98.50
2023-03-02T18:56:44.605Z,98.50
2023-03-02T18:59:12.126Z,98.50
2023-03-02T19:01:38.987Z,98.50
2023-03-02T19:04:06.305Z,98.50
2023-03-02T19:06:33.735Z,98.50
2023-03-02T19:09:00.622Z,98.50
2023-03-02T19:11:27.386Z,98.50
2023-03-02T19:13:54.151Z,98.50
2023-03-02T19:16:20.995Z,98.50
2023-03-02T19:18:48.627Z,98.50
2023-03-02T19:21:16.170Z,98.50
2023-03-02T19:23:43.783Z,98.50
2023-03-02T19:26:11.570Z,98.50
2023-03-02T19:28:39.857Z,98.50
2023-03-02T19:31:09.272Z,98.50
2023-03-02T19:33:37.217Z,98.50
2023-03-02T19:36:04.840Z,98.50
2023-03-02T19:38:31.544Z,98.50
2023-03-02T19:41:00.118Z,98.50
2023-03-02T19:43:27.751Z,98.50
2023-03-02T19:45:54.590Z,98.50
2023-03-02T19:48:21.529Z,98.50
2023-03-02T19:50:48.503Z,98.50
2023-03-02T19:53:17.049Z,98.50
2023-03-02T19:55:44.402Z,98.50
2023-03-02T19:58:17.151Z,98.50
2023-03-02T20:00:45.446Z,98.50
2023-03-02T20:03:13.064Z,98.50
2023-03-02T20:05:39.955Z,98.50
2023-03-02T20:08:07.441Z,98.50
2023-03-02T20:10:46.515Z,98.50
2023-03-02T20:13:13.199Z,98.50
2023-03-02T20:15:42.659Z,98.50
2023-03-02T20:18:15.711Z,98.50
2023-03-02T20:20:45.168Z,98.50
2023-03-02T20:23:12.450Z,98.50
2023-03-02T20:25:39.592Z,98.50
2023-03-02T20:28:11.768Z,98.50
2023-03-02T20:30:44.077Z,98.50
2023-03-02T20:33:12.359Z,98.50
2023-03-02T20:35:42.515Z,98.50
2023-03-02T20:38:14.370Z,98.50
2023-03-02T20:40:41.207Z,98.50
2023-03-02T20:43:07.970Z,98.50
2023-03-02T20:45:35.646Z,98.50
2023-03-02T20:48:03.101Z,98.50
2023-03-02T20:50:33.018Z,98.50
2023-03-02T20:53:00.039Z,98.50
2023-03-02T20:55:27.127Z,98.50
2023-03-02T20:57:56.957Z,98.50
2023-03-02T21:00:27.378Z,98.50
2023-03-02T21:02:54.811Z,98.50
2023-03-02T21:05:21.610Z,98.50
2023-03-02T21:07:51.596Z,98.50
2023-03-02T21:10:21.817Z,98.50
2023-03-02T21:12:49.048Z,98.50
2023-03-02T21:15:16.906Z,98.50
2023-03-02T21:17:43.588Z,98.50
2023-03-02T21:20:12.174Z,98.50
2023-03-02T21:22:39.030Z,98.50
2023-03-02T21:25:08.830Z,98.50
2023-03-02T21:27:37.156Z,98.50
2023-03-02T21:30:08.709Z,98.50
2023-03-02T21:32:35.398Z,98.50
2023-03-02T21:35:02.525Z,98.50
2023-03-02T21:37:29.350Z,98.50
2023-03-02T21:39:56.132Z,98.50
2023-03-02T21:42:22.896Z,98.50
2023-03-02T21:44:49.629Z,98.50
2023-03-02T21:47:16.413Z,98.50
2023-03-02T21:49:43.205Z,98.50
2023-03-02T21:52:10.300Z,98.50
2023-03-02T21:54:37.007Z,98.50
2023-03-02T21:57:03.799Z,98.50
2023-03-02T21:59:30.824Z,98.50
2023-03-02T22:01:57.590Z,98.50
2023-03-02T22:04:24.319Z,98.50
2023-03-02T22:06:51.114Z,98.50
2023-03-02T22:09:17.781Z,98.50
2023-03-02T22:11:45.163Z,98.50
2023-03-02T22:14:17.479Z,98.50
2023-03-02T22:16:47.772Z,98.50
2023-03-02T22:19:23.625Z,98.50
2023-03-02T22:21:51.621Z,98.50
2023-03-02T22:24:28.728Z,98.50
2023-03-02T22:26:58.567Z,98.50
2023-03-02T22:29:33.641Z,98.50
2023-03-02T22:32:15.316Z,98.50
2023-03-02T22:34:44.322Z,98.50
2023-03-02T22:37:13.879Z,98.50
2023-03-02T22:39:42.277Z,98.50
2023-03-02T22:42:15.997Z,98.50
2023-03-02T22:44:44.182Z,98.50
2023-03-02T22:47:20.363Z,98.50
2023-03-02T22:49:52.951Z,98.50
2023-03-02T22:52:25.079Z,98.50
2023-03-02T22:54:51.903Z,98.50
2023-03-02T22:57:24.756Z,98.50
2023-03-02T22:59:51.439Z,98.50
2023-03-02T23:02:22.293Z,98.50
2023-03-02T23:04:50.149Z,98.50
2023-03-02T23:07:19.835Z,98.50
2023-03-02T23:09:47.436Z,98.50
2023-03-02T23:12:22.496Z,98.50
2023-03-02T23:14:49.290Z,98.50
2023-03-02T23:17:34.459Z,98.50
2023-03-02T23:20:01.999Z,98.50
2023-03-02T23:22:30.035Z,98.50
2023-03-02T23:24:57.053Z,98.50
2023-03-02T23:27:27.751Z,98.50
2023-03-02T23:29:54.422Z,98.50
2023-03-02T23:32:21.337Z,98.50
2023-03-02T23:34:48.150Z,98.50
2023-03-02T23:37:14.783Z,98.50
2023-03-02T23:39:41.446Z,98.50
2023-03-02T23:42:08.641Z,98.50
2023-03-02T23:44:35.320Z,98.50
2023-03-02T23:47:01.973Z,98.50
2023-03-02T23:49:28.829Z,98.50
2023-03-02T23:51:55.588Z,98.50
2023-03-02T23:54:22.257Z,98.50
2023-03-02T23:56:48.947Z,98.50
2023-03-02T23:59:15.667Z,98.50
